Time,TemperatureF,DewpointF,PressureIn,WindDirection,WindDirectionDegrees,WindSpeedMPH,WindSpeedGustMPH,Humidity,HourlyPrecipIn,Conditions,Clouds,dailyrainin,SoftwareType,DateUTC
2013-07-08 00:01:00,84.0,62.8,29.88,ENE,68,0.0,0.0,49,0.00,,SKC,0.00,VWS V14.01,2013-07-08 07:01:00,
2013-07-08 00:07:00,84.0,63.4,29.88,ENE,68,0.0,0.0,50,0.00,,SKC,0.00,VWS V14.01,2013-07-08 07:07:00,
2013-07-08 00:12:00,84.0,63.4,29.88,ENE,68,0.0,0.0,50,0.00,,SKC,0.00,VWS V14.01,2013-07-08 07:12:00,
2013-07-08 00:18:00,84.0,63.4,29.88,ENE,68,0.0,0.0,50,0.00,,SKC,0.00,VWS V14.01,2013-07-08 07:18:00,
2013-07-08 00:24:00,83.0,62.5,29.88,NE,45,0.0,0.0,50,0.00,,SKC,0.00,VWS V14.01,2013-07-08 07:24:00,
2013-07-08 00:29:00,83.0,63.6,29.88,NE,45,0.0,0.0,52,0.00,,SKC,0.00,VWS V14.01,2013-07-08 07:29:00,
2013-07-08 00:34:00,83.0,61.9,29.88,NE,45,0.0,0.0,49,0.00,,SKC,0.00,VWS V14.01,2013-07-08 07:34:00,
2013-07-08 00:39:00,83.0,61.9,29.88,NE,45,0.0,0.0,49,0.00,,SKC,0.00,VWS V14.01,2013-07-08 07:39:00,
2013-07-08 00:44:00,83.0,61.9,29.88,NE,45,0.0,0.0,49,0.00,,SKC,0.00,VWS V14.01,2013-07-08 07:44:00,
2013-07-08 00:49:00,83.0,63.0,29.88,WNW,292,0.0,0.0,51,0.00,,SKC,0.00,VWS V14.01,2013-07-08 07:49:00,
2013-07-08 00:55:00,84.0,59.8,29.88,NNE,22,0.0,0.0,44,0.00,,SKC,0.00,VWS V14.01,2013-07-08 07:55:00,
2013-07-08 01:00:00,84.0,61.6,29.89,NW,315,0.0,1.0,47,0.00,,SKC,0.00,VWS V14.01,2013-07-08 08:00:00,
2013-07-08 01:05:00,84.0,61.0,29.89,NW,315,1.0,1.0,46,0.00,,SKC,0.00,VWS V14.01,2013-07-08 08:05:00,
2013-07-08 01:10:00,84.0,61.0,29.89,NW,315,0.0,0.0,46,0.00,,SKC,0.00,VWS V14.01,2013-07-08 08:10:00,
2013-07-08 01:15:00,84.0,61.0,29.89,NW,315,0.0,0.0,46,0.00,,SKC,0.00,VWS V14.01,2013-07-08 08:15:00,
2013-07-08 01:21:00,84.0,62.2,29.89,NNE,22,0.0,0.0,48,0.00,,SKC,0.00,VWS V14.01,2013-07-08 08:21:00,
2013-07-08 01:27:00,84.0,62.2,29.89,NNE,22,0.0,0.0,48,0.00,,SKC,0.00,VWS V14.01,2013-07-08 08:27:00,
2013-07-08 01:32:00,84.0,63.4,29.89,NNE,22,0.0,0.0,50,0.00,,SKC,0.00,VWS V14.01,2013-07-08 08:32:00,
2013-07-08 01:37:00,83.0,63.6,29.89,NNE,22,0.0,0.0,52,0.00,,SKC,0.00,VWS V14.01,2013-07-08 08:37:00,
2013-07-08 01:42:00,83.0,65.2,29.89,North,0,0.0,0.0,55,0.00,,SKC,0.00,VWS V14.01,2013-07-08 08:42:00,
2013-07-08 01:47:00,83.0,64.7,29.89,North,0,0.0,0.0,54,0.00,,SKC,0.00,VWS V14.01,2013-07-08 08:47:00,
2013-07-08 01:52:00,82.0,64.8,29.89,NNE,22,0.0,0.0,56,0.00,,SKC,0.00,VWS V14.01,2013-07-08 08:52:00,
2013-07-08 01:58:00,82.0,66.3,29.89,NNE,22,0.0,0.0,59,0.00,,SKC,0.00,VWS V14.01,2013-07-08 08:58:00,
2013-07-08 02:03:00,82.0,66.3,29.89,NW,315,0.0,0.0,59,0.00,,SKC,0.00,VWS V14.01,2013-07-08 09:03:00,
2013-07-08 02:08:00,82.0,65.8,29.89,NW,315,1.0,1.0,58,0.00,,SKC,0.00,VWS V14.01,2013-07-08 09:08:00,
2013-07-08 02:13:00,82.0,66.3,29.89,NW,315,0.0,0.0,59,0.00,,SKC,0.00,VWS V14.01,2013-07-08 09:13:00,
2013-07-08 02:18:00,82.0,65.3,29.89,WNW,292,0.0,1.0,57,0.00,,SKC,0.00,VWS V14.01,2013-07-08 09:18:00,
2013-07-08 02:23:00,82.0,64.3,29.89,WNW,292,0.0,0.0,55,0.00,,SKC,0.00,VWS V14.01,2013-07-08 09:23:00,
2013-07-08 02:28:00,83.0,63.0,29.89,West,270,4.0,4.0,51,0.00,,SKC,0.00,VWS V14.01,2013-07-08 09:28:00,
2013-07-08 02:33:00,83.0,62.5,29.89,WNW,292,5.0,5.0,50,0.00,,SKC,0.00,VWS V14.01,2013-07-08 09:33:00,
2013-07-08 02:38:00,83.0,62.5,29.89,West,270,5.0,5.0,50,0.00,,SKC,0.00,VWS V14.01,2013-07-08 09:38:00,
2013-07-08 02:43:00,83.0,61.3,29.89,West,270,4.0,5.0,48,0.00,,SKC,0.00,VWS V14.01,2013-07-08 09:43:00,
2013-07-08 02:48:00,83.0,61.3,29.89,WSW,248,5.0,5.0,48,0.00,,SKC,0.00,VWS V14.01,2013-07-08 09:48:00,
2013-07-08 02:53:00,83.0,61.3,29.89,West,270,5.0,6.0,48,0.00,,SKC,0.00,VWS V14.01,2013-07-08 09:53:00,
2013-07-08 02:58:00,83.0,61.3,29.89,WNW,292,5.0,6.0,48,0.00,,SKC,0.00,VWS V14.01,2013-07-08 09:58:00,
2013-07-08 03:03:00,83.0,61.3,29.89,WNW,292,10.0,10.0,48,0.00,,SKC,0.00,VWS V14.01,2013-07-08 10:03:00,
2013-07-08 03:08:00,84.0,61.0,29.89,WNW,292,8.0,8.0,46,0.00,,SKC,0.00,VWS V14.01,2013-07-08 10:08:00,
2013-07-08 03:13:00,84.0,60.4,29.89,WNW,292,8.0,8.0,45,0.00,,SKC,0.00,VWS V14.01,2013-07-08 10:13:00,
2013-07-08 03:18:00,84.0,59.8,29.89,West,270,1.0,2.0,44,0.00,,SKC,0.00,VWS V14.01,2013-07-08 10:18:00,
2013-07-08 03:23:00,84.0,59.1,29.90,SSE,158,1.0,1.0,43,0.00,,SKC,0.00,VWS V14.01,2013-07-08 10:23:00,
2013-07-08 03:28:00,84.0,62.8,29.90,ENE,68,4.0,5.0,49,0.00,,SKC,0.00,VWS V14.01,2013-07-08 10:28:00,
2013-07-08 03:33:00,83.0,62.5,29.90,ENE,68,0.0,0.0,50,0.00,,SKC,0.00,VWS V14.01,2013-07-08 10:33:00,
2013-07-08 03:38:00,83.0,63.6,29.90,NE,45,0.0,0.0,52,0.00,,SKC,0.00,VWS V14.01,2013-07-08 10:38:00,
2013-07-08 03:43:00,82.0,62.7,29.90,NE,45,0.0,0.0,52,0.00,,SKC,0.00,VWS V14.01,2013-07-08 10:43:00,
2013-07-08 03:48:00,82.0,63.7,29.90,ENE,68,1.0,1.0,54,0.00,,SKC,0.00,VWS V14.01,2013-07-08 10:48:00,
2013-07-08 03:53:00,82.0,63.7,29.90,NE,45,0.0,0.0,54,0.00,,SKC,0.00,VWS V14.01,2013-07-08 10:53:00,
2013-07-08 03:58:00,82.0,63.2,29.90,NNE,22,3.0,3.0,53,0.00,,SKC,0.00,VWS V14.01,2013-07-08 10:58:00,
2013-07-08 04:03:00,82.0,63.2,29.90,NE,45,3.0,3.0,53,0.00,,SKC,0.00,VWS V14.01,2013-07-08 11:03:00,
2013-07-08 04:08:00,82.0,63.2,29.90,North,0,3.0,3.0,53,0.00,,SKC,0.00,VWS V14.01,2013-07-08 11:08:00,
2013-07-08 04:13:00,81.0,62.3,29.90,NNE,22,2.0,2.0,53,0.00,,SKC,0.00,VWS V14.01,2013-07-08 11:13:00,
2013-07-08 04:18:00,81.0,62.3,29.90,NNE,22,2.0,2.0,53,0.00,,SKC,0.00,VWS V14.01,2013-07-08 11:18:00,
2013-07-08 04:23:00,81.0,62.3,29.90,North,0,1.0,1.0,53,0.00,,SKC,0.00,VWS V14.01,2013-07-08 11:23:00,
2013-07-08 04:28:00,81.0,62.3,29.91,NE,45,0.0,1.0,53,0.00,,SKC,0.00,VWS V14.01,2013-07-08 11:28:00,
2013-07-08 04:33:00,81.0,61.7,29.91,NNW,338,2.0,3.0,52,0.00,,SKC,0.00,VWS V14.01,2013-07-08 11:33:00,
2013-07-08 04:38:00,81.0,61.7,29.91,North,0,3.0,3.0,52,0.00,,SKC,0.00,VWS V14.01,2013-07-08 11:38:00,
2013-07-08 04:43:00,81.0,62.8,29.91,SE,135,6.0,6.0,54,0.00,,SKC,0.00,VWS V14.01,2013-07-08 11:43:00,
2013-07-08 04:48:00,81.0,62.3,29.91,SE,135,2.0,3.0,53,0.00,,SKC,0.00,VWS V14.01,2013-07-08 11:48:00,
2013-07-08 04:53:00,81.0,62.8,29.91,SE,135,0.0,0.0,54,0.00,,SKC,0.00,VWS V14.01,2013-07-08 11:53:00,
2013-07-08 04:58:00,80.0,61.9,29.91,SE,135,0.0,0.0,54,0.00,,SKC,0.00,VWS V14.01,2013-07-08 11:58:00,
2013-07-08 05:03:00,80.0,61.3,29.91,NE,45,1.0,2.0,53,0.00,,SKC,0.00,VWS V14.01,2013-07-08 12:03:00,
2013-07-08 05:08:00,80.0,62.4,29.91,SE,135,1.0,3.0,55,0.00,,SKC,0.00,VWS V14.01,2013-07-08 12:08:00,
2013-07-08 05:13:00,80.0,61.9,29.91,North,0,3.0,3.0,54,0.00,,SKC,0.00,VWS V14.01,2013-07-08 12:13:00,
2013-07-08 05:18:00,80.0,63.4,29.91,ENE,68,0.0,0.0,57,0.00,,SKC,0.00,VWS V14.01,2013-07-08 12:18:00,
2013-07-08 05:23:00,80.0,63.4,29.91,ENE,68,0.0,0.0,57,0.00,,SKC,0.00,VWS V14.01,2013-07-08 12:23:00,
2013-07-08 05:28:00,79.0,63.0,29.91,ENE,68,0.0,0.0,58,0.00,,SKC,0.00,VWS V14.01,2013-07-08 12:28:00,
2013-07-08 05:33:00,79.0,63.0,29.91,ENE,68,0.0,0.0,58,0.00,,SKC,0.00,VWS V14.01,2013-07-08 12:33:00,
2013-07-08 05:38:00,79.0,63.0,29.92,ENE,68,0.0,0.0,58,0.00,,SKC,0.00,VWS V14.01,2013-07-08 12:38:00,
2013-07-08 05:43:00,79.0,63.0,29.91,ENE,68,0.0,0.0,58,0.00,,SKC,0.00,VWS V14.01,2013-07-08 12:43:00,
2013-07-08 05:48:00,79.0,63.0,29.91,ENE,68,0.0,0.0,58,0.00,,SKC,0.00,VWS V14.01,2013-07-08 12:48:00,
2013-07-08 05:53:00,79.0,63.5,29.91,North,0,0.0,0.0,59,0.00,,SKC,0.00,VWS V14.01,2013-07-08 12:53:00,
2013-07-08 05:58:00,79.0,63.9,29.92,North,0,0.0,0.0,60,0.00,,SKC,0.00,VWS V14.01,2013-07-08 12:58:00,
2013-07-08 06:03:00,78.0,63.5,29.92,NNW,338,0.0,0.0,61,0.00,,SKC,0.00,VWS V14.01,2013-07-08 13:03:00,
2013-07-08 06:08:00,78.0,63.9,29.92,SSE,158,0.0,0.0,62,0.00,,SKC,0.00,VWS V14.01,2013-07-08 13:08:00,
2013-07-08 06:13:00,78.0,64.4,29.92,NE,45,0.0,0.0,63,0.00,,SKC,0.00,VWS V14.01,2013-07-08 13:13:00,
2013-07-08 06:18:00,78.0,64.8,29.92,SSW,202,0.0,0.0,64,0.00,,SKC,0.00,VWS V14.01,2013-07-08 13:18:00,
2013-07-08 06:23:00,78.0,64.4,29.92,NE,45,0.0,1.0,63,0.00,,SKC,0.00,VWS V14.01,2013-07-08 13:23:00,
2013-07-08 06:28:00,78.0,64.8,29.92,ENE,68,0.0,0.0,64,0.00,,SKC,0.00,VWS V14.01,2013-07-08 13:28:00,
2013-07-08 06:33:00,78.0,64.8,29.92,ESE,112,3.0,3.0,64,0.00,,SKC,0.00,VWS V14.01,2013-07-08 13:33:00,
2013-07-08 06:38:00,78.0,64.8,29.93,ENE,68,0.0,0.0,64,0.00,,SKC,0.00,VWS V14.01,2013-07-08 13:38:00,
2013-07-08 06:43:00,78.0,64.4,29.92,NE,45,0.0,0.0,63,0.00,,SKC,0.00,VWS V14.01,2013-07-08 13:43:00,
2013-07-08 06:48:00,79.0,65.3,29.93,ENE,68,1.0,2.0,63,0.00,,SKC,0.00,VWS V14.01,2013-07-08 13:48:00,
2013-07-08 06:53:00,79.0,65.8,29.93,ENE,68,0.0,1.0,64,0.00,,SKC,0.00,VWS V14.01,2013-07-08 13:53:00,
2013-07-08 06:58:00,79.0,66.2,29.93,ENE,68,1.0,3.0,65,0.00,,SKC,0.00,VWS V14.01,2013-07-08 13:58:00,
2013-07-08 07:03:00,79.0,66.2,29.93,NE,45,0.0,0.0,65,0.00,,SKC,0.00,VWS V14.01,2013-07-08 14:03:00,
2013-07-08 07:08:00,79.0,65.8,29.94,ENE,68,3.0,3.0,64,0.00,,SKC,0.00,VWS V14.01,2013-07-08 14:08:00,
2013-07-08 07:13:00,79.0,65.3,29.94,North,0,2.0,3.0,63,0.00,,SKC,0.00,VWS V14.01,2013-07-08 14:13:00,
2013-07-08 07:18:00,79.0,64.4,29.94,NNE,22,2.0,2.0,61,0.00,,SKC,0.00,VWS V14.01,2013-07-08 14:18:00,
2013-07-08 07:23:00,79.0,63.5,29.94,NW,315,0.0,0.0,59,0.00,,SKC,0.00,VWS V14.01,2013-07-08 14:23:00,
2013-07-08 07:28:00,80.0,63.4,29.94,NNE,22,0.0,1.0,57,0.00,,SKC,0.00,VWS V14.01,2013-07-08 14:28:00,
2013-07-08 07:33:00,80.0,63.4,29.94,North,0,0.0,1.0,57,0.00,,SKC,0.00,VWS V14.01,2013-07-08 14:33:00,
2013-07-08 07:38:00,80.0,62.9,29.94,North,0,1.0,2.0,56,0.00,,SKC,0.00,VWS V14.01,2013-07-08 14:38:00,
2013-07-08 07:43:00,81.0,63.8,29.94,North,0,2.0,3.0,56,0.00,,SKC,0.00,VWS V14.01,2013-07-08 14:43:00,
2013-07-08 07:48:00,81.0,63.3,29.94,NNE,22,3.0,3.0,55,0.00,,SKC,0.00,VWS V14.01,2013-07-08 14:48:00,
2013-07-08 07:53:00,81.0,63.3,29.95,ENE,68,0.0,1.0,55,0.00,,SKC,0.00,VWS V14.01,2013-07-08 14:53:00,
2013-07-08 07:58:00,82.0,63.7,29.95,NNE,22,0.0,0.0,54,0.00,,SKC,0.00,VWS V14.01,2013-07-08 14:58:00,
2013-07-08 08:03:00,83.0,64.1,29.95,NE,45,2.0,3.0,53,0.00,,SKC,0.00,VWS V14.01,2013-07-08 15:03:00,
2013-07-08 08:08:00,83.0,64.1,29.95,North,0,0.0,1.0,53,0.00,,SKC,0.00,VWS V14.01,2013-07-08 15:08:00,
2013-07-08 08:13:00,84.0,63.4,29.95,NNE,22,0.0,0.0,50,0.00,,SKC,0.00,VWS V14.01,2013-07-08 15:13:00,
2013-07-08 08:18:00,85.0,64.3,29.95,ENE,68,2.0,3.0,50,0.00,,SKC,0.00,VWS V14.01,2013-07-08 15:18:00,
2013-07-08 08:24:00,86.0,64.0,29.95,ENE,68,0.0,0.0,48,0.00,,SKC,0.00,VWS V14.01,2013-07-08 15:24:00,
2013-07-08 08:30:00,87.0,63.7,29.95,North,0,2.0,3.0,46,0.00,,SKC,0.00,VWS V14.01,2013-07-08 15:30:00,
2013-07-08 08:35:00,87.0,61.8,29.95,NE,45,2.0,2.0,43,0.00,,SKC,0.00,VWS V14.01,2013-07-08 15:35:00,
2013-07-08 08:40:00,88.0,62.7,29.95,NNE,22,0.0,1.0,43,0.00,,SKC,0.00,VWS V14.01,2013-07-08 15:40:00,
2013-07-08 08:45:00,88.0,62.0,29.95,NW,315,0.0,0.0,42,0.00,,SKC,0.00,VWS V14.01,2013-07-08 15:45:00,
2013-07-08 08:50:00,89.0,63.0,29.95,NW,315,0.0,0.0,42,0.00,,SKC,0.00,VWS V14.01,2013-07-08 15:50:00,
2013-07-08 08:55:00,89.0,60.8,29.96,NNW,338,0.0,0.0,39,0.00,,SKC,0.00,VWS V14.01,2013-07-08 15:55:00,
2013-07-08 09:00:00,89.0,61.6,29.96,WNW,292,0.0,0.0,40,0.00,,SKC,0.00,VWS V14.01,2013-07-08 16:00:00,
2013-07-08 09:05:00,89.0,60.8,29.96,West,270,0.0,0.0,39,0.00,,SKC,0.00,VWS V14.01,2013-07-08 16:05:00,
2013-07-08 09:10:00,90.0,61.7,29.96,NNW,338,0.0,1.0,39,0.00,,SKC,0.00,VWS V14.01,2013-07-08 16:10:00,
2013-07-08 09:15:00,90.0,61.0,29.96,ENE,68,0.0,0.0,38,0.00,,SKC,0.00,VWS V14.01,2013-07-08 16:15:00,
2013-07-08 09:20:00,90.0,60.3,29.96,NNE,22,0.0,0.0,37,0.00,,SKC,0.00,VWS V14.01,2013-07-08 16:20:00,
2013-07-08 09:25:00,91.0,61.1,29.96,SSE,158,3.0,3.0,37,0.00,,SKC,0.00,VWS V14.01,2013-07-08 16:25:00,
2013-07-08 09:30:00,92.0,61.2,29.96,SSW,202,0.0,0.0,36,0.00,,SKC,0.00,VWS V14.01,2013-07-08 16:30:00,
2013-07-08 09:35:00,92.0,61.2,29.96,SW,225,0.0,0.0,36,0.00,,SKC,0.00,VWS V14.01,2013-07-08 16:35:00,
2013-07-08 09:40:00,92.0,60.5,29.96,WSW,248,2.0,3.0,35,0.00,,SKC,0.00,VWS V14.01,2013-07-08 16:40:00,
2013-07-08 09:46:00,91.0,60.4,29.96,West,270,3.0,3.0,36,0.00,,SKC,0.00,VWS V14.01,2013-07-08 16:46:00,
2013-07-08 09:51:00,92.0,60.5,29.96,WSW,248,0.0,0.0,35,0.00,,SKC,0.00,VWS V14.01,2013-07-08 16:51:00,
2013-07-08 09:56:00,93.0,60.5,29.96,SSE,158,0.0,0.0,34,0.00,,SKC,0.00,VWS V14.01,2013-07-08 16:56:00,
2013-07-08 10:01:00,94.0,60.5,29.96,SE,135,3.0,3.0,33,0.00,,SKC,0.00,VWS V14.01,2013-07-08 17:01:00,
2013-07-08 10:06:00,94.0,60.5,29.96,SE,135,1.0,2.0,33,0.00,,SKC,0.00,VWS V14.01,2013-07-08 17:06:00,
2013-07-08 10:11:00,94.0,60.5,29.96,WSW,248,1.0,2.0,33,0.00,,SKC,0.00,VWS V14.01,2013-07-08 17:11:00,
2013-07-08 10:16:00,95.0,60.5,29.96,SE,135,3.0,4.0,32,0.00,,SKC,0.00,VWS V14.01,2013-07-08 17:16:00,
2013-07-08 10:22:00,95.0,59.7,29.96,ENE,68,6.0,6.0,31,0.00,,SKC,0.00,VWS V14.01,2013-07-08 17:22:00,
2013-07-08 10:27:00,95.0,60.5,29.96,SSE,158,0.0,1.0,32,0.00,,SKC,0.00,VWS V14.01,2013-07-08 17:27:00,
2013-07-08 10:32:00,96.0,59.6,29.96,South,180,1.0,2.0,30,0.00,,SKC,0.00,VWS V14.01,2013-07-08 17:32:00,
2013-07-08 10:37:00,97.0,61.4,29.96,East,90,4.0,4.0,31,0.00,,SKC,0.00,VWS V14.01,2013-07-08 17:37:00,
2013-07-08 10:42:00,96.0,59.6,29.96,East,90,1.0,1.0,30,0.00,,SKC,0.00,VWS V14.01,2013-07-08 17:42:00,
2013-07-08 10:48:00,97.0,61.4,29.96,WNW,292,0.0,0.0,31,0.00,,SKC,0.00,VWS V14.01,2013-07-08 17:48:00,
2013-07-08 10:53:00,97.0,59.5,29.96,ESE,112,1.0,1.0,29,0.00,,SKC,0.00,VWS V14.01,2013-07-08 17:53:00,
2013-07-08 10:58:00,98.0,59.4,29.96,NE,45,3.0,5.0,28,0.00,,SKC,0.00,VWS V14.01,2013-07-08 17:58:00,
2013-07-08 11:03:00,97.0,59.5,29.96,East,90,3.0,4.0,29,0.00,,SKC,0.00,VWS V14.01,2013-07-08 18:03:00,
2013-07-08 11:08:00,98.0,60.4,29.95,ENE,68,3.0,3.0,29,0.00,,SKC,0.00,VWS V14.01,2013-07-08 18:08:00,
2013-07-08 11:13:00,98.0,59.4,29.95,SE,135,2.0,2.0,28,0.00,,SKC,0.00,VWS V14.01,2013-07-08 18:13:00,
2013-07-08 11:19:00,99.0,60.2,29.95,SSE,158,0.0,1.0,28,0.00,,SKC,0.00,VWS V14.01,2013-07-08 18:19:00,
2013-07-08 11:24:00,99.0,58.2,29.95,ENE,68,0.0,0.0,26,0.00,,SKC,0.00,VWS V14.01,2013-07-08 18:24:00,
2013-07-08 11:29:00,99.0,58.2,29.95,NE,45,3.0,3.0,26,0.00,,SKC,0.00,VWS V14.01,2013-07-08 18:29:00,
2013-07-08 11:35:00,99.0,59.2,29.95,East,90,3.0,3.0,27,0.00,,SKC,0.00,VWS V14.01,2013-07-08 18:35:00,
2013-07-08 11:40:00,99.0,58.2,29.94,West,270,0.0,0.0,26,0.00,,SKC,0.00,VWS V14.01,2013-07-08 18:40:00,
2013-07-08 11:45:00,98.0,58.3,29.94,ESE,112,5.0,5.0,27,0.00,,SKC,0.00,VWS V14.01,2013-07-08 18:45:00,
2013-07-08 11:50:00,98.0,58.3,29.94,East,90,3.0,4.0,27,0.00,,SKC,0.00,VWS V14.01,2013-07-08 18:50:00,
2013-07-08 11:55:00,98.0,59.4,29.94,North,0,0.0,0.0,28,0.00,,SKC,0.00,VWS V14.01,2013-07-08 18:55:00,
2013-07-08 12:01:00,98.0,58.3,29.94,NE,45,3.0,4.0,27,0.00,,SKC,0.00,VWS V14.01,2013-07-08 19:01:00,
2013-07-08 12:06:00,98.0,58.3,29.94,ENE,68,5.0,6.0,27,0.00,,SKC,0.00,VWS V14.01,2013-07-08 19:06:00,
2013-07-08 12:11:00,98.0,58.3,29.94,East,90,3.0,4.0,27,0.00,,SKC,0.00,VWS V14.01,2013-07-08 19:11:00,
2013-07-08 12:16:00,98.0,58.3,29.94,NE,45,2.0,3.0,27,0.00,,SKC,0.00,VWS V14.01,2013-07-08 19:16:00,
2013-07-08 12:22:00,98.0,59.4,29.94,ENE,68,4.0,4.0,28,0.00,,SKC,0.00,VWS V14.01,2013-07-08 19:22:00,
2013-07-08 12:27:00,98.0,58.3,29.94,North,0,4.0,4.0,27,0.00,,SKC,0.00,VWS V14.01,2013-07-08 19:27:00,
2013-07-08 12:37:00,99.0,58.2,29.93,NE,45,0.0,0.0,26,0.00,,SKC,0.00,VWS V14.01,2013-07-08 19:37:00,
2013-07-08 12:42:00,99.0,58.2,29.93,SE,135,3.0,3.0,26,0.00,,SKC,0.00,VWS V14.01,2013-07-08 19:42:00,
2013-07-08 12:48:00,99.0,57.1,29.93,ESE,112,5.0,5.0,25,0.00,,SKC,0.00,VWS V14.01,2013-07-08 19:48:00,
2013-07-08 12:53:00,99.0,57.1,29.93,ESE,112,5.0,5.0,25,0.00,,SKC,0.00,VWS V14.01,2013-07-08 19:53:00,
2013-07-08 12:59:00,100.0,57.9,29.92,NE,45,5.0,5.0,25,0.00,,SKC,0.00,VWS V14.01,2013-07-08 19:59:00,
2013-07-08 13:04:00,100.0,57.9,29.92,SSE,158,7.0,7.0,25,0.00,,SKC,0.00,VWS V14.01,2013-07-08 20:04:00,
2013-07-08 13:10:00,101.0,58.7,29.92,ESE,112,2.0,3.0,25,0.00,,SKC,0.00,VWS V14.01,2013-07-08 20:10:00,
2013-07-08 13:18:00,101.0,57.6,29.92,ENE,68,2.0,3.0,24,0.00,,SKC,0.00,VWS V14.01,2013-07-08 20:18:00,
2013-07-08 13:24:00,101.0,57.6,29.92,ENE,68,5.0,5.0,24,0.00,,SKC,0.00,VWS V14.01,2013-07-08 20:24:00,
2013-07-08 13:29:00,101.0,57.6,29.92,ESE,112,6.0,7.0,24,0.00,,SKC,0.00,VWS V14.01,2013-07-08 20:29:00,
2013-07-08 13:34:00,101.0,57.6,29.92,ESE,112,6.0,6.0,24,0.00,,SKC,0.00,VWS V14.01,2013-07-08 20:34:00,
2013-07-08 13:40:00,100.0,57.9,29.91,SE,135,5.0,5.0,25,0.00,,SKC,0.00,VWS V14.01,2013-07-08 20:40:00,
2013-07-08 13:45:00,101.0,58.7,29.91,SE,135,3.0,3.0,25,0.00,,SKC,0.00,VWS V14.01,2013-07-08 20:45:00,
2013-07-08 13:50:00,101.0,58.7,29.91,NE,45,5.0,8.0,25,0.00,,SKC,0.00,VWS V14.01,2013-07-08 20:50:00,
2013-07-08 13:55:00,101.0,57.6,29.91,East,90,4.0,4.0,24,0.00,,SKC,0.00,VWS V14.01,2013-07-08 20:55:00,
2013-07-08 14:00:00,100.0,56.8,29.91,East,90,5.0,6.0,24,0.00,,SKC,0.00,VWS V14.01,2013-07-08 21:00:00,
2013-07-08 14:07:00,100.0,56.8,29.91,SE,135,3.0,3.0,24,0.00,,SKC,0.00,VWS V14.01,2013-07-08 21:07:00,
2013-07-08 14:12:00,101.0,58.7,29.90,East,90,6.0,7.0,25,0.00,,SKC,0.00,VWS V14.01,2013-07-08 21:12:00,
2013-07-08 14:17:00,100.0,59.0,29.90,West,270,4.0,4.0,26,0.00,,SKC,0.00,VWS V14.01,2013-07-08 21:17:00,
2013-07-08 14:23:00,100.0,57.9,29.90,ENE,68,2.0,3.0,25,0.00,,SKC,0.00,VWS V14.01,2013-07-08 21:23:00,
2013-07-08 14:30:00,100.0,57.9,29.90,SE,135,5.0,5.0,25,0.00,,SKC,0.00,VWS V14.01,2013-07-08 21:30:00,
2013-07-08 14:37:00,100.0,57.9,29.90,ENE,68,1.0,3.0,25,0.00,,SKC,0.00,VWS V14.01,2013-07-08 21:37:00,
2013-07-08 14:43:00,100.0,57.9,29.90,ENE,68,0.0,0.0,25,0.00,,SKC,0.00,VWS V14.01,2013-07-08 21:43:00,
2013-07-08 14:50:00,100.0,57.9,29.89,East,90,4.0,4.0,25,0.00,,SKC,0.00,VWS V14.01,2013-07-08 21:50:00,
2013-07-08 14:55:00,100.0,57.9,29.89,ESE,112,5.0,6.0,25,0.00,,SKC,0.00,VWS V14.01,2013-07-08 21:55:00,
2013-07-08 15:01:00,99.0,57.1,29.89,ENE,68,3.0,3.0,25,0.00,,SKC,0.00,VWS V14.01,2013-07-08 22:01:00,
2013-07-08 15:06:00,100.0,57.9,29.89,ENE,68,0.0,0.0,25,0.00,,SKC,0.00,VWS V14.01,2013-07-08 22:06:00,
2013-07-08 15:12:00,100.0,57.9,29.89,ENE,68,0.0,0.0,25,0.00,,SKC,0.00,VWS V14.01,2013-07-08 22:12:00,
2013-07-08 15:17:00,100.0,56.8,29.89,East,90,0.0,0.0,24,0.00,,SKC,0.00,VWS V14.01,2013-07-08 22:17:00,
2013-07-08 15:24:00,100.0,57.9,29.88,ENE,68,2.0,3.0,25,0.00,,SKC,0.00,VWS V14.01,2013-07-08 22:24:00,
2013-07-08 15:30:00,100.0,57.9,29.88,SE,135,1.0,1.0,25,0.00,,SKC,0.00,VWS V14.01,2013-07-08 22:30:00,
2013-07-08 15:35:00,100.0,57.9,29.88,ENE,68,0.0,0.0,25,0.00,,SKC,0.00,VWS V14.01,2013-07-08 22:35:00,
2013-07-08 15:40:00,100.0,57.9,29.87,ENE,68,5.0,5.0,25,0.00,,SKC,0.00,VWS V14.01,2013-07-08 22:40:00,
2013-07-08 15:45:00,100.0,57.9,29.88,SSW,202,0.0,0.0,25,0.00,,SKC,0.00,VWS V14.01,2013-07-08 22:45:00,
2013-07-08 15:52:00,101.0,58.7,29.88,SSE,158,0.0,0.0,25,0.00,,SKC,0.00,VWS V14.01,2013-07-08 22:52:00,
2013-07-08 15:57:00,101.0,57.6,29.88,East,90,3.0,3.0,24,0.00,,SKC,0.00,VWS V14.01,2013-07-08 22:57:00,
2013-07-08 16:02:00,101.0,57.6,29.88,NNE,22,0.0,0.0,24,0.00,,SKC,0.00,VWS V14.01,2013-07-08 23:02:00,
2013-07-08 16:07:00,101.0,57.6,29.88,ENE,68,0.0,0.0,24,0.00,,SKC,0.00,VWS V14.01,2013-07-08 23:07:00,
2013-07-08 16:12:00,101.0,58.7,29.88,NNE,22,0.0,0.0,25,0.00,,SKC,0.00,VWS V14.01,2013-07-08 23:12:00,
2013-07-08 16:17:00,101.0,57.6,29.88,NE,45,3.0,3.0,24,0.00,,SKC,0.00,VWS V14.01,2013-07-08 23:17:00,
2013-07-08 16:22:00,101.0,57.6,29.88,North,0,5.0,5.0,24,0.00,,SKC,0.00,VWS V14.01,2013-07-08 23:22:00,
2013-07-08 16:27:00,101.0,56.4,29.87,NNE,22,1.0,3.0,23,0.00,,SKC,0.00,VWS V14.01,2013-07-08 23:27:00,
2013-07-08 16:35:00,101.0,57.6,29.87,ENE,68,4.0,5.0,24,0.00,,SKC,0.00,VWS V14.01,2013-07-08 23:35:00,
2013-07-08 16:40:00,101.0,57.6,29.87,East,90,0.0,0.0,24,0.00,,SKC,0.00,VWS V14.01,2013-07-08 23:40:00,
2013-07-08 16:45:00,101.0,57.6,29.86,ENE,68,0.0,0.0,24,0.00,,SKC,0.00,VWS V14.01,2013-07-08 23:45:00,
2013-07-08 16:50:00,101.0,57.6,29.86,NNE,22,0.0,0.0,24,0.00,,SKC,0.00,VWS V14.01,2013-07-08 23:50:00,
2013-07-08 16:57:00,102.0,58.4,29.86,NW,315,0.0,0.0,24,0.00,,SKC,0.00,VWS V14.01,2013-07-08 23:57:00,
2013-07-08 17:02:00,102.0,58.4,29.86,WNW,292,0.0,0.0,24,0.00,,SKC,0.00,VWS V14.01,2013-07-09 00:02:00,
2013-07-08 17:07:00,102.0,57.2,29.86,NW,315,2.0,3.0,23,0.00,,SKC,0.00,VWS V14.01,2013-07-09 00:07:00,
2013-07-08 17:13:00,103.0,58.1,29.86,WNW,292,0.0,0.0,23,0.00,,SKC,0.00,VWS V14.01,2013-07-09 00:13:00,
2013-07-08 17:18:00,102.0,56.0,29.86,WSW,248,5.0,6.0,22,0.00,,SKC,0.00,VWS V14.01,2013-07-09 00:18:00,
2013-07-08 17:27:00,102.0,56.0,29.86,NW,315,8.0,8.0,22,0.00,,SKC,0.00,VWS V14.01,2013-07-09 00:27:00,
2013-07-08 17:33:00,102.0,57.2,29.86,West,270,1.0,1.0,23,0.00,,SKC,0.00,VWS V14.01,2013-07-09 00:33:00,
2013-07-08 17:38:00,102.0,56.0,29.86,NW,315,0.0,0.0,22,0.00,,SKC,0.00,VWS V14.01,2013-07-09 00:38:00,
2013-07-08 17:44:00,103.0,56.8,29.86,NW,315,0.0,0.0,22,0.00,,SKC,0.00,VWS V14.01,2013-07-09 00:44:00,
2013-07-08 17:49:00,102.0,56.0,29.86,ENE,68,0.0,0.0,22,0.00,,SKC,0.00,VWS V14.01,2013-07-09 00:49:00,
2013-07-08 17:54:00,102.0,56.0,29.86,NW,315,3.0,4.0,22,0.00,,SKC,0.00,VWS V14.01,2013-07-09 00:54:00,
2013-07-08 18:04:00,103.0,55.6,29.86,NW,315,6.0,6.0,21,0.00,,SKC,0.00,VWS V14.01,2013-07-09 01:04:00,
2013-07-08 18:11:00,102.0,54.7,29.86,NW,315,2.0,3.0,21,0.00,,SKC,0.00,VWS V14.01,2013-07-09 01:11:00,
2013-07-08 18:16:00,102.0,54.7,29.86,WNW,292,3.0,4.0,21,0.00,,SKC,0.00,VWS V14.01,2013-07-09 01:16:00,
2013-07-08 18:21:00,103.0,55.6,29.86,WNW,292,6.0,6.0,21,0.00,,SKC,0.00,VWS V14.01,2013-07-09 01:21:00,
2013-07-08 18:27:00,102.0,53.4,29.86,WNW,292,0.0,0.0,20,0.00,,SKC,0.00,VWS V14.01,2013-07-09 01:27:00,
2013-07-08 18:32:00,101.0,53.9,29.86,West,270,3.0,5.0,21,0.00,,SKC,0.00,VWS V14.01,2013-07-09 01:32:00,
2013-07-08 18:37:00,101.0,53.9,29.86,SW,225,1.0,2.0,21,0.00,,SKC,0.00,VWS V14.01,2013-07-09 01:37:00,
2013-07-08 18:42:00,101.0,55.2,29.86,SW,225,6.0,6.0,22,0.00,,SKC,0.00,VWS V14.01,2013-07-09 01:42:00,
2013-07-08 18:50:00,100.0,54.4,29.87,West,270,0.0,0.0,22,0.00,,SKC,0.00,VWS V14.01,2013-07-09 01:50:00,
2013-07-08 18:55:00,100.0,54.4,29.87,West,270,0.0,0.0,22,0.00,,SKC,0.00,VWS V14.01,2013-07-09 01:55:00,
2013-07-08 19:00:00,100.0,54.4,29.87,West,270,0.0,0.0,22,0.00,,SKC,0.00,VWS V14.01,2013-07-09 02:00:00,
2013-07-08 19:06:00,100.0,54.4,29.87,West,270,0.0,0.0,22,0.00,,SKC,0.00,VWS V14.01,2013-07-09 02:06:00,
2013-07-08 19:11:00,99.0,54.8,29.87,North,0,3.0,3.0,23,0.00,,SKC,0.00,VWS V14.01,2013-07-09 02:11:00,
2013-07-08 19:16:00,99.0,54.8,29.88,NW,315,4.0,5.0,23,0.00,,SKC,0.00,VWS V14.01,2013-07-09 02:16:00,
2013-07-08 19:21:00,98.0,57.3,29.89,NW,315,10.0,11.0,26,0.00,,SKC,0.00,VWS V14.01,2013-07-09 02:21:00,
2013-07-08 19:26:00,94.0,58.8,29.90,North,0,18.0,19.0,31,0.00,,SKC,0.00,VWS V14.01,2013-07-09 02:26:00,
2013-07-08 19:31:00,93.0,59.7,29.90,NE,45,8.0,14.0,33,0.00,,SKC,0.00,VWS V14.01,2013-07-09 02:31:00,
2013-07-08 19:36:00,92.0,59.6,29.91,NNE,22,10.0,14.0,34,0.00,,SKC,0.00,VWS V14.01,2013-07-09 02:36:00,
2013-07-08 19:42:00,90.0,60.3,29.91,North,0,12.0,12.0,37,0.00,,SKC,0.00,VWS V14.01,2013-07-09 02:42:00,
2013-07-08 19:47:00,89.0,60.1,29.91,North,0,6.0,11.0,38,0.00,,SKC,0.00,VWS V14.01,2013-07-09 02:47:00,
2013-07-08 19:53:00,89.0,60.1,29.91,North,0,13.0,16.0,38,0.00,,SKC,0.00,VWS V14.01,2013-07-09 02:53:00,
2013-07-08 19:58:00,89.0,60.8,29.91,NNW,338,8.0,12.0,39,0.00,,SKC,0.00,VWS V14.01,2013-07-09 02:58:00,
2013-07-08 20:04:00,89.0,59.4,29.92,North,0,9.0,15.0,37,0.00,,SKC,0.00,VWS V14.01,2013-07-09 03:04:00,
2013-07-08 20:10:00,89.0,58.6,29.92,North,0,8.0,13.0,36,0.00,,SKC,0.00,VWS V14.01,2013-07-09 03:10:00,
2013-07-08 20:15:00,88.0,60.7,29.92,NNE,22,9.0,9.0,40,0.00,,SKC,0.00,VWS V14.01,2013-07-09 03:15:00,
2013-07-08 20:22:00,87.0,60.5,29.93,NNW,338,8.0,8.0,41,0.00,,SKC,0.00,VWS V14.01,2013-07-09 03:22:00,
2013-07-08 20:27:00,88.0,60.7,29.94,NW,315,11.0,11.0,40,0.00,,SKC,0.00,VWS V14.01,2013-07-09 03:27:00,
2013-07-08 20:32:00,87.0,60.5,29.94,NW,315,11.0,13.0,41,0.00,,SKC,0.00,VWS V14.01,2013-07-09 03:32:00,
2013-07-08 20:38:00,88.0,60.0,29.95,North,0,13.0,13.0,39,0.00,,SKC,0.00,VWS V14.01,2013-07-09 03:38:00,
2013-07-08 20:43:00,88.0,59.2,29.95,NE,45,8.0,18.0,38,0.00,,SKC,0.00,VWS V14.01,2013-07-09 03:43:00,
2013-07-08 20:48:00,88.0,59.2,29.96,NNW,338,5.0,6.0,38,0.00,,SKC,0.00,VWS V14.01,2013-07-09 03:48:00,
2013-07-08 20:54:00,87.0,60.5,29.96,NW,315,11.0,14.0,41,0.00,,SKC,0.00,VWS V14.01,2013-07-09 03:54:00,
2013-07-08 20:59:00,86.0,60.3,29.96,North,0,6.0,7.0,42,0.00,,SKC,0.00,VWS V14.01,2013-07-09 03:59:00,
2013-07-08 21:01:00,86.0,60.3,29.96,NNW,338,13.0,17.0,42,0.00,,SKC,0.00,VWS V14.01,2013-07-09 04:01:00,
2013-07-08 21:02:00,86.0,59.6,29.96,North,0,10.0,13.0,41,0.00,,SKC,0.00,VWS V14.01,2013-07-09 04:02:00,
2013-07-08 21:03:00,86.0,59.6,29.96,North,0,10.0,12.0,41,0.00,,SKC,0.00,VWS V14.01,2013-07-09 04:03:00,
2013-07-08 21:04:00,86.0,59.6,29.96,NNW,338,12.0,14.0,41,0.00,,SKC,0.00,VWS V14.01,2013-07-09 04:04:00,
2013-07-08 21:08:00,86.0,59.6,29.96,NNE,22,11.0,12.0,41,0.00,,SKC,0.00,VWS V14.01,2013-07-09 04:08:00,
2013-07-08 21:13:00,85.0,60.7,29.96,NNW,338,5.0,6.0,44,0.00,,SKC,0.00,VWS V14.01,2013-07-09 04:13:00,
2013-07-08 21:18:00,85.0,61.3,29.96,NNW,338,4.0,5.0,45,0.00,,SKC,0.00,VWS V14.01,2013-07-09 04:18:00,
2013-07-08 21:23:00,85.0,61.9,29.96,West,270,5.0,8.0,46,0.00,,SKC,0.00,VWS V14.01,2013-07-09 04:23:00,
2013-07-08 21:28:00,84.0,61.0,29.96,NNE,22,8.0,9.0,46,0.00,,SKC,0.00,VWS V14.01,2013-07-09 04:28:00,
2013-07-08 21:33:00,85.0,61.3,29.96,ENE,68,5.0,8.0,45,0.00,,SKC,0.00,VWS V14.01,2013-07-09 04:33:00,
2013-07-08 21:38:00,85.0,61.3,29.95,ENE,68,4.0,5.0,45,0.00,,SKC,0.00,VWS V14.01,2013-07-09 04:38:00,
2013-07-08 21:43:00,85.0,60.7,29.95,NNE,22,5.0,6.0,44,0.00,,SKC,0.00,VWS V14.01,2013-07-09 04:43:00,
2013-07-08 21:48:00,85.0,60.7,29.95,NE,45,4.0,5.0,44,0.00,,SKC,0.00,VWS V14.01,2013-07-09 04:48:00,
2013-07-08 21:53:00,85.0,60.7,29.95,NNE,22,4.0,5.0,44,0.00,,SKC,0.00,VWS V14.01,2013-07-09 04:53:00,
2013-07-08 21:58:00,85.0,60.0,29.95,NE,45,4.0,4.0,43,0.00,,SKC,0.00,VWS V14.01,2013-07-09 04:58:00,
2013-07-08 22:03:00,85.0,60.0,29.95,North,0,3.0,3.0,43,0.00,,SKC,0.00,VWS V14.01,2013-07-09 05:03:00,
2013-07-08 22:08:00,86.0,60.3,29.95,NNE,22,1.0,2.0,42,0.00,,SKC,0.00,VWS V14.01,2013-07-09 05:08:00,
2013-07-08 22:13:00,86.0,59.6,29.95,NE,45,3.0,3.0,41,0.00,,SKC,0.00,VWS V14.01,2013-07-09 05:13:00,
2013-07-08 22:18:00,86.0,58.2,29.94,NNE,22,3.0,3.0,39,0.00,,SKC,0.00,VWS V14.01,2013-07-09 05:18:00,
2013-07-08 22:23:00,87.0,58.3,29.94,ENE,68,5.0,5.0,38,0.00,,SKC,0.00,VWS V14.01,2013-07-09 05:23:00,
2013-07-08 22:28:00,87.0,58.3,29.94,ENE,68,4.0,5.0,38,0.00,,SKC,0.00,VWS V14.01,2013-07-09 05:28:00,
2013-07-08 22:33:00,87.0,59.1,29.95,ESE,112,2.0,2.0,39,0.00,,SKC,0.00,VWS V14.01,2013-07-09 05:33:00,
2013-07-08 22:38:00,87.0,58.3,29.95,SE,135,6.0,6.0,38,0.00,,SKC,0.00,VWS V14.01,2013-07-09 05:38:00,
2013-07-08 22:43:00,88.0,58.5,29.94,ESE,112,3.0,4.0,37,0.00,,SKC,0.00,VWS V14.01,2013-07-09 05:43:00,
2013-07-08 22:48:00,88.0,58.5,29.95,SSE,158,3.0,3.0,37,0.00,,SKC,0.00,VWS V14.01,2013-07-09 05:48:00,
2013-07-08 22:53:00,89.0,59.4,29.95,SW,225,3.0,3.0,37,0.00,,SKC,0.00,VWS V14.01,2013-07-09 05:53:00,
2013-07-08 22:58:00,89.0,58.6,29.94,SSE,158,5.0,5.0,36,0.00,,SKC,0.00,VWS V14.01,2013-07-09 05:58:00,
2013-07-08 23:03:00,89.0,58.6,29.94,SE,135,3.0,5.0,36,0.00,,SKC,0.00,VWS V14.01,2013-07-09 06:03:00,
2013-07-08 23:08:00,89.0,58.6,29.95,SE,135,5.0,5.0,36,0.00,,SKC,0.00,VWS V14.01,2013-07-09 06:08:00,
2013-07-08 23:13:00,89.0,58.6,29.95,SSE,158,3.0,3.0,36,0.00,,SKC,0.00,VWS V14.01,2013-07-09 06:13:00,
2013-07-08 23:18:00,89.0,58.6,29.95,South,180,3.0,3.0,36,0.00,,SKC,0.00,VWS V14.01,2013-07-09 06:18:00,
2013-07-08 23:23:00,89.0,57.8,29.95,SSW,202,2.0,2.0,35,0.00,,SKC,0.00,VWS V14.01,2013-07-09 06:23:00,
2013-07-08 23:28:00,89.0,57.8,29.95,SSE,158,8.0,8.0,35,0.00,,SKC,0.00,VWS V14.01,2013-07-09 06:28:00,
2013-07-08 23:33:00,89.0,58.6,29.95,South,180,2.0,3.0,36,0.00,,SKC,0.00,VWS V14.01,2013-07-09 06:33:00,
2013-07-08 23:38:00,89.0,58.6,29.96,SSE,158,5.0,5.0,36,0.00,,SKC,0.00,VWS V14.01,2013-07-09 06:38:00,
2013-07-08 23:43:00,89.0,58.6,29.95,SSE,158,5.0,6.0,36,0.00,,SKC,0.00,VWS V14.01,2013-07-09 06:43:00,
2013-07-08 23:48:00,89.0,58.6,29.95,SE,135,4.0,5.0,36,0.00,,SKC,0.00,VWS V14.01,2013-07-09 06:48:00,
2013-07-08 23:53:00,89.0,59.4,29.95,ENE,68,1.0,1.0,37,0.00,,SKC,0.00,VWS V14.01,2013-07-09 06:53:00,
2013-07-08 23:58:00,88.0,59.2,29.95,ENE,68,2.0,3.0,38,0.00,,SKC,0.00,VWS V14.01,2013-07-09 06:58:00,